createdAt,value
2022-10-17T00:02:03.501Z,12.54
2022-10-17T00:07:05.789Z,12.53
2022-10-17T00:09:32.181Z,12.49
2022-10-17T00:11:58.515Z,12.55
2022-10-17T00:14:24.827Z,12.48
2022-10-17T00:16:51.115Z,12.53
2022-10-17T00:19:17.386Z,12.45
2022-10-17T00:21:43.653Z,12.53
2022-10-17T00:24:10.002Z,12.58
2022-10-17T00:26:36.424Z,12.54
2022-10-17T00:29:03.265Z,12.61
2022-10-17T00:31:29.751Z,12.59
2022-10-17T00:33:56.105Z,12.53
2022-10-17T00:36:25.290Z,12.44
2022-10-17T00:38:57.560Z,12.43
2022-10-17T00:41:30.115Z,12.33
2022-10-17T00:44:06.307Z,12.33
2022-10-17T00:46:36.211Z,12.26
2022-10-17T00:49:06.740Z,12.21
2022-10-17T00:51:54.990Z,12.10
2022-10-17T00:54:25.309Z,11.98
2022-10-17T00:56:52.332Z,12.00
2022-10-17T00:59:21.711Z,11.97
2022-10-17T01:01:56.597Z,11.96
2022-10-17T01:04:22.917Z,11.93
2022-10-17T01:06:49.232Z,11.94
2022-10-17T01:09:15.663Z,11.92
2022-10-17T01:11:55.678Z,11.88
2022-10-17T01:14:31.507Z,11.90
2022-10-17T01:17:11.731Z,11.86
2022-10-17T01:19:55.940Z,11.86
2022-10-17T01:22:45.288Z,11.89
2022-10-17T01:25:29.739Z,11.88
2022-10-17T01:28:14.228Z,11.85
2022-10-17T01:31:09.223Z,11.87
2022-10-17T01:33:46.201Z,11.87
2022-10-17T01:36:25.974Z,11.82
2022-10-17T01:39:02.114Z,11.86
2022-10-17T01:41:40.316Z,11.88
2022-10-17T01:44:27.176Z,11.89
2022-10-17T01:47:03.369Z,11.85
2022-10-17T01:49:32.091Z,11.86
2022-10-17T01:52:06.336Z,11.86
2022-10-17T01:54:44.448Z,11.88
2022-10-17T01:57:43.232Z,11.89
2022-10-17T02:00:13.566Z,11.86
2022-10-17T02:02:42.054Z,11.85
2022-10-17T02:05:08.721Z,11.78
2022-10-17T02:07:35.263Z,11.78
2022-10-17T02:10:04.460Z,11.76
2022-10-17T02:13:06.097Z,11.74
2022-10-17T02:15:47.596Z,11.67
2022-10-17T02:18:23.574Z,11.59
2022-10-17T02:21:15.420Z,11.50
2022-10-17T02:23:57.863Z,11.45
2022-10-17T02:26:57.661Z,11.37
2022-10-17T02:29:31.145Z,11.31
2022-10-17T02:32:17.696Z,11.24
2022-10-17T02:34:50.046Z,11.20
2022-10-17T02:37:22.767Z,11.22
2022-10-17T02:39:50.761Z,11.22
2022-10-17T02:42:19.242Z,11.21
2022-10-17T02:44:46.885Z,11.21
2022-10-17T02:47:21.210Z,11.23
2022-10-17T02:49:51.514Z,11.21
2022-10-17T02:52:27.702Z,11.22
2022-10-17T02:55:11.409Z,11.25
2022-10-17T02:57:41.881Z,11.25
2022-10-17T03:00:11.079Z,11.26
2022-10-17T03:02:46.011Z,11.25
2022-10-17T03:05:15.612Z,11.22
2022-10-17T03:07:41.958Z,11.26
2022-10-17T03:10:08.376Z,11.22
2022-10-17T03:12:34.712Z,11.25
2022-10-17T03:15:01.046Z,11.25
2022-10-17T03:17:27.344Z,11.21
2022-10-17T03:19:53.744Z,11.23
2022-10-17T03:22:20.241Z,11.22
2022-10-17T03:24:46.617Z,11.22
2022-10-17T03:27:12.958Z,11.21
2022-10-17T03:29:39.254Z,11.16
2022-10-17T03:32:05.733Z,11.05
2022-10-17T03:34:32.255Z,10.97
2022-10-17T03:36:58.562Z,10.99
2022-10-17T03:39:24.992Z,10.94
2022-10-17T03:41:51.328Z,10.94
2022-10-17T03:44:17.643Z,10.92
2022-10-17T03:46:44.273Z,10.94
2022-10-17T03:49:10.590Z,10.92
2022-10-17T03:51:37.231Z,10.91
2022-10-17T03:54:03.911Z,10.92
2022-10-17T03:56:30.449Z,10.91
2022-10-17T03:58:56.728Z,10.81
2022-10-17T04:01:23.442Z,10.90
2022-10-17T04:03:51.661Z,10.92
2022-10-17T04:06:18.965Z,10.94
2022-10-17T04:08:45.403Z,10.97
2022-10-17T04:11:15.725Z,10.97
2022-10-17T04:13:42.229Z,10.98
2022-10-17T04:16:12.674Z,10.98
2022-10-17T04:18:39.153Z,11.00
2022-10-17T04:21:07.026Z,11.02
2022-10-17T04:23:34.359Z,11.01
2022-10-17T04:26:01.656Z,11.01
2022-10-17T04:28:28.407Z,11.01
2022-10-17T04:31:08.054Z,11.01
2022-10-17T04:33:34.587Z,10.98
2022-10-17T04:36:10.482Z,11.04
2022-10-17T04:38:36.941Z,10.98
2022-10-17T04:41:06.915Z,11.02
2022-10-17T04:43:36.070Z,10.98
2022-10-17T04:46:05.757Z,10.91
2022-10-17T04:48:32.787Z,10.97
2022-10-17T04:51:05.822Z,11.02
2022-10-17T04:53:34.395Z,10.96
2022-10-17T04:56:00.749Z,10.96
2022-10-17T04:58:29.976Z,10.99
2022-10-17T05:00:56.659Z,11.01
2022-10-17T05:03:22.977Z,10.98
2022-10-17T05:05:49.241Z,10.90
2022-10-17T05:08:15.677Z,10.86
2022-10-17T05:10:44.586Z,10.90
2022-10-17T05:13:11.680Z,10.87
2022-10-17T05:15:38.253Z,10.89
2022-10-17T05:18:05.831Z,10.91
2022-10-17T05:20:32.507Z,10.89
2022-10-17T05:22:59.816Z,10.89
2022-10-17T05:25:26.130Z,10.89
2022-10-17T05:27:53.596Z,10.90
2022-10-17T05:30:20.141Z,10.89
2022-10-17T05:32:46.482Z,10.93
2022-10-17T05:35:12.808Z,10.89
2022-10-17T05:37:39.183Z,10.85
2022-10-17T05:40:05.968Z,10.86
2022-10-17T05:42:32.885Z,10.83
2022-10-17T05:44:59.487Z,10.82
2022-10-17T05:47:25.810Z,10.75
2022-10-17T05:49:52.608Z,10.72
2022-10-17T05:52:19.139Z,10.68
2022-10-17T05:54:45.547Z,10.77
2022-10-17T05:57:12.028Z,10.80
2022-10-17T05:59:38.307Z,10.79
2022-10-17T06:02:04.718Z,10.80
2022-10-17T06:04:31.358Z,10.79
2022-10-17T06:06:57.670Z,10.79
2022-10-17T06:09:24.283Z,10.80
2022-10-17T06:11:50.589Z,10.74
2022-10-17T06:14:16.964Z,10.72
2022-10-17T06:16:43.629Z,10.65
2022-10-17T06:19:11.428Z,10.70
2022-10-17T06:21:38.717Z,10.67
2022-10-17T06:24:05.415Z,10.74
2022-10-17T06:26:31.754Z,10.79
2022-10-17T06:28:58.090Z,10.82
2022-10-17T06:31:24.479Z,10.83
2022-10-17T06:33:50.787Z,10.83
2022-10-17T06:36:17.152Z,10.95
2022-10-17T06:38:43.466Z,11.01
2022-10-17T06:41:14.020Z,11.06
2022-10-17T06:43:47.656Z,11.13
2022-10-17T06:46:15.999Z,11.20
2022-10-17T06:48:42.665Z,11.23
2022-10-17T06:51:11.882Z,11.26
2022-10-17T06:53:40.184Z,11.35
2022-10-17T06:56:08.252Z,11.43
2022-10-17T06:58:38.961Z,11.47
2022-10-17T07:01:10.455Z,11.53
2022-10-17T07:03:37.316Z,11.67
2022-10-17T07:08:55.653Z,11.78
2022-10-17T07:11:23.171Z,11.97
2022-10-17T07:13:49.598Z,12.01
2022-10-17T07:16:16.320Z,12.10
2022-10-17T07:18:43.066Z,12.21
2022-10-17T07:21:09.969Z,12.38
2022-10-17T07:23:37.082Z,12.46
2022-10-17T07:26:07.335Z,12.62
2022-10-17T07:28:35.119Z,12.76
2022-10-17T07:31:10.043Z,12.86
2022-10-17T07:33:36.551Z,13.05
2022-10-17T07:36:04.457Z,13.21
2022-10-17T07:38:31.017Z,13.34
2022-10-17T07:41:01.895Z,13.45
2022-10-17T07:43:28.787Z,13.61
2022-10-17T07:45:55.126Z,13.72
2022-10-17T07:48:23.157Z,13.91
2022-10-17T07:50:49.866Z,14.13
2022-10-17T07:53:16.724Z,14.25
2022-10-17T07:55:44.672Z,14.48
2022-10-17T07:58:10.996Z,14.60
2022-10-17T08:00:37.566Z,14.78
2022-10-17T08:03:04.510Z,14.97
2022-10-17T08:05:31.670Z,15.10
2022-10-17T08:07:58.177Z,15.21
2022-10-17T08:10:29.231Z,15.19
2022-10-17T08:12:56.828Z,15.18
2022-10-17T08:15:27.956Z,15.17
2022-10-17T08:17:58.478Z,15.21
2022-10-17T08:20:24.834Z,15.22
2022-10-17T08:22:54.957Z,15.24
2022-10-17T08:25:21.907Z,15.29
2022-10-17T08:27:48.959Z,15.33
2022-10-17T08:30:15.772Z,15.41
2022-10-17T08:32:42.178Z,15.40
2022-10-17T08:35:09.266Z,15.53
2022-10-17T08:37:35.561Z,15.78
2022-10-17T08:40:01.932Z,15.91
2022-10-17T08:42:50.960Z,16.02
2022-10-17T08:45:23.538Z,16.08
2022-10-17T08:47:59.809Z,16.09
2022-10-17T08:50:40.291Z,16.27
2022-10-17T08:53:43.608Z,16.31
2022-10-17T08:56:44.054Z,16.40
2022-10-17T08:59:29.454Z,16.44
2022-10-17T09:02:15.939Z,16.49
2022-10-17T09:05:07.379Z,16.52
2022-10-17T09:07:45.809Z,16.58
2022-10-17T09:10:26.849Z,16.65
2022-10-17T09:13:19.372Z,16.71
2022-10-17T09:16:09.595Z,16.83
2022-10-17T09:18:47.409Z,17.09
2022-10-17T09:21:51.947Z,17.23
2022-10-17T09:24:25.293Z,17.31
2022-10-17T09:26:52.752Z,17.36
2022-10-17T09:29:22.828Z,17.40
2022-10-17T09:31:52.736Z,17.49
2022-10-17T09:34:20.371Z,17.58
2022-10-17T09:36:48.271Z,17.72
2022-10-17T09:39:18.464Z,18.03
2022-10-17T09:41:50.138Z,18.02
2022-10-17T09:44:19.218Z,18.01
2022-10-17T09:47:15.156Z,18.08
2022-10-17T09:49:43.816Z,18.19
2022-10-17T09:52:17.695Z,18.36
2022-10-17T09:54:51.044Z,18.47
2022-10-17T09:57:19.746Z,18.63
2022-10-17T09:59:55.942Z,18.70
2022-10-17T10:02:24.749Z,18.82
2022-10-17T10:05:06.665Z,18.98
2022-10-17T10:07:37.208Z,18.96
2022-10-17T10:10:06.616Z,18.98
2022-10-17T10:12:36.472Z,19.06
2022-10-17T10:15:37.515Z,19.25
2022-10-17T10:18:24.492Z,19.36
2022-10-17T10:21:12.774Z,19.66
2022-10-17T10:23:44.078Z,19.76
2022-10-17T10:26:22.167Z,19.80
2022-10-17T10:28:55.793Z,19.86
2022-10-17T10:31:37.982Z,19.90
2022-10-17T10:34:27.002Z,20.11
2022-10-17T10:37:00.864Z,20.22
2022-10-17T10:39:41.903Z,20.35
2022-10-17T10:42:19.884Z,20.30
2022-10-17T10:44:47.072Z,20.29
2022-10-17T10:47:20.611Z,20.43
2022-10-17T10:49:47.363Z,20.69
2022-10-17T10:52:22.350Z,20.80
2022-10-17T10:54:57.833Z,20.81
2022-10-17T10:57:30.809Z,20.96
2022-10-17T11:00:05.104Z,21.07
2022-10-17T11:02:53.017Z,21.02
2022-10-17T11:05:39.879Z,21.21
2022-10-17T11:08:18.055Z,21.19
2022-10-17T11:11:03.513Z,21.39
2022-10-17T11:13:50.685Z,21.46
2022-10-17T11:16:23.435Z,21.48
2022-10-17T11:18:59.659Z,21.46
2022-10-17T11:21:48.696Z,21.62
2022-10-17T11:24:24.500Z,21.76
2022-10-17T11:27:07.610Z,21.80
2022-10-17T11:29:40.209Z,21.73
2022-10-17T11:32:17.778Z,21.73
2022-10-17T11:34:47.712Z,21.85
2022-10-17T11:37:34.891Z,22.00
2022-10-17T11:40:07.989Z,22.06
2022-10-17T11:42:47.097Z,21.94
2022-10-17T11:45:19.572Z,21.95
2022-10-17T11:47:51.456Z,21.93
2022-10-17T11:53:20.484Z,22.28
2022-10-17T11:55:47.699Z,22.24
2022-10-17T11:58:22.962Z,22.45
2022-10-17T12:01:11.206Z,22.53
2022-10-17T12:04:02.784Z,22.55
2022-10-17T12:07:07.036Z,22.60
2022-10-17T12:10:00.490Z,22.76
2022-10-17T12:12:34.676Z,22.87
2022-10-17T12:15:24.347Z,22.89
2022-10-17T12:18:03.053Z,22.95
2022-10-17T12:20:31.008Z,22.95
2022-10-17T12:23:03.263Z,22.86
2022-10-17T12:25:33.734Z,22.90
2022-10-17T12:28:06.183Z,22.97
2022-10-17T12:30:33.443Z,22.81
2022-10-17T12:33:07.031Z,22.84
2022-10-17T12:35:37.240Z,22.76
2022-10-17T12:38:16.128Z,22.75
2022-10-17T12:40:47.736Z,22.73
2022-10-17T12:43:17.747Z,22.69
2022-10-17T12:45:55.156Z,22.72
2022-10-17T12:48:36.579Z,22.68
2022-10-17T12:53:59.166Z,22.63
2022-10-17T12:56:41.087Z,22.64
2022-10-17T12:59:22.308Z,22.63
2022-10-17T13:01:58.202Z,22.68
2022-10-17T13:04:25.492Z,22.75
2022-10-17T13:06:57.097Z,22.81
2022-10-17T13:09:32.374Z,22.84
2022-10-17T13:12:02.742Z,22.76
2022-10-17T13:14:31.518Z,22.84
2022-10-17T13:17:06.211Z,22.90
2022-10-17T13:19:44.637Z,22.85
2022-10-17T13:22:18.425Z,22.66
2022-10-17T13:24:45.343Z,22.94
2022-10-17T13:27:33.135Z,22.71
2022-10-17T13:30:01.843Z,22.58
2022-10-17T13:32:39.091Z,22.57
2022-10-17T13:35:09.645Z,22.55
2022-10-17T13:37:37.487Z,22.56
2022-10-17T13:40:16.249Z,22.48
2022-10-17T13:42:52.594Z,22.58
2022-10-17T13:45:26.400Z,22.53
2022-10-17T13:47:53.162Z,22.59
2022-10-17T13:50:42.946Z,22.69
2022-10-17T13:53:24.273Z,22.50
2022-10-17T13:56:34.485Z,22.50
2022-10-17T13:59:08.448Z,22.49
2022-10-17T14:01:35.025Z,22.42
2022-10-17T14:04:08.967Z,22.43
2022-10-17T14:06:47.867Z,22.41
2022-10-17T14:09:20.403Z,22.31
2022-10-17T14:11:59.084Z,22.46
2022-10-17T14:14:26.665Z,22.34
2022-10-17T14:16:53.258Z,22.38
2022-10-17T14:19:25.213Z,22.35
2022-10-17T14:21:56.923Z,22.32
2022-10-17T14:24:23.362Z,22.30
2022-10-17T14:26:54.732Z,22.29
2022-10-17T14:29:32.404Z,22.29
2022-10-17T14:32:10.729Z,22.33
2022-10-17T14:34:40.480Z,22.19
2022-10-17T14:37:28.095Z,22.09
2022-10-17T14:39:57.243Z,22.09
2022-10-17T14:42:23.635Z,22.12
2022-10-17T14:44:51.713Z,22.16
2022-10-17T14:47:43.364Z,22.09
2022-10-17T14:50:10.321Z,22.08
2022-10-17T14:52:38.761Z,22.06
2022-10-17T14:55:23.467Z,22.10
2022-10-17T14:57:50.295Z,22.13
2022-10-17T15:00:18.991Z,22.16
2022-10-17T15:02:47.137Z,22.17
2022-10-17T15:07:41.005Z,22.16
2022-10-17T15:10:23.179Z,22.05
2022-10-17T15:12:58.951Z,22.07
2022-10-17T15:15:31.679Z,22.09
2022-10-17T15:17:58.826Z,22.03
2022-10-17T15:20:27.877Z,22.10
2022-10-17T15:22:54.614Z,22.14
2022-10-17T15:25:21.647Z,22.19
2022-10-17T15:27:48.096Z,22.17
2022-10-17T15:30:24.271Z,22.19
2022-10-17T15:32:52.278Z,22.19
2022-10-17T15:35:19.918Z,22.22
2022-10-17T15:37:46.767Z,22.21
2022-10-17T15:40:18.772Z,22.13
2022-10-17T15:42:45.283Z,22.16
2022-10-17T15:45:15.174Z,22.11
2022-10-17T15:47:43.036Z,21.99
2022-10-17T15:50:16.203Z,21.93
2022-10-17T15:52:43.173Z,21.85
2022-10-17T15:55:10.856Z,21.86
2022-10-17T15:57:40.599Z,21.77
2022-10-17T16:00:16.734Z,21.71
2022-10-17T16:02:43.500Z,21.61
2022-10-17T16:05:15.955Z,21.50
2022-10-17T16:07:45.970Z,21.54
2022-10-17T16:10:13.894Z,21.45
2022-10-17T16:12:41.339Z,21.40
2022-10-17T16:15:14.428Z,21.29
2022-10-17T16:17:41.084Z,21.23
2022-10-17T16:20:08.058Z,21.16
2022-10-17T16:22:37.683Z,21.07
2022-10-17T16:25:10.076Z,21.10
2022-10-17T16:27:37.175Z,21.09
2022-10-17T16:30:07.802Z,21.02
2022-10-17T16:32:34.189Z,20.99
2022-10-17T16:35:00.527Z,20.93
2022-10-17T16:37:26.950Z,20.92
2022-10-17T16:39:53.602Z,20.77
2022-10-17T16:42:21.504Z,20.66
2022-10-17T16:44:49.095Z,20.63
2022-10-17T16:47:16.253Z,20.51
2022-10-17T16:49:45.187Z,20.40
2022-10-17T16:52:12.074Z,20.27
2022-10-17T16:54:38.409Z,20.26
2022-10-17T16:57:05.425Z,20.12
2022-10-17T16:59:31.790Z,20.16
2022-10-17T17:01:58.164Z,20.11
2022-10-17T17:04:24.691Z,20.09
2022-10-17T17:06:51.066Z,20.10
2022-10-17T17:09:17.404Z,20.10
2022-10-17T17:11:43.716Z,20.07
2022-10-17T17:14:11.515Z,20.08
2022-10-17T17:16:37.864Z,20.03
2022-10-17T17:19:07.320Z,19.98
2022-10-17T17:21:34.473Z,19.98
2022-10-17T17:24:02.434Z,19.95
2022-10-17T17:26:30.952Z,19.91
2022-10-17T17:28:59.605Z,19.82
2022-10-17T17:31:28.428Z,19.77
2022-10-17T17:36:25.366Z,19.66
2022-10-17T17:38:54.999Z,19.63
2022-10-17T17:41:21.928Z,19.61
2022-10-17T17:43:49.435Z,19.58
2022-10-17T17:46:18.060Z,19.54
2022-10-17T17:48:45.892Z,19.51
2022-10-17T17:51:14.822Z,19.48
2022-10-17T17:53:41.309Z,19.40
2022-10-17T17:56:16.312Z,19.31
2022-10-17T17:58:45.460Z,19.20
2022-10-17T18:01:15.178Z,19.11
2022-10-17T18:03:41.630Z,19.00
2022-10-17T18:06:08.670Z,18.92
2022-10-17T18:08:36.030Z,18.85
2022-10-17T18:11:02.726Z,18.76
2022-10-17T18:13:29.712Z,18.68
2022-10-17T18:15:58.086Z,18.65
2022-10-17T18:18:25.661Z,18.61
2022-10-17T18:20:52.270Z,18.54
2022-10-17T18:23:18.615Z,18.52
2022-10-17T18:25:56.704Z,18.45
2022-10-17T18:28:24.304Z,18.40
2022-10-17T18:30:50.707Z,18.36
2022-10-17T18:33:17.159Z,18.36
2022-10-17T18:35:43.468Z,18.26
2022-10-17T18:38:09.804Z,18.16
2022-10-17T18:40:36.077Z,18.22
2022-10-17T18:43:02.506Z,18.20
2022-10-17T18:45:28.860Z,18.14
2022-10-17T18:47:55.182Z,18.19
2022-10-17T18:50:23.236Z,18.20
2022-10-17T18:52:49.989Z,18.16
2022-10-17T18:55:20.084Z,18.14
2022-10-17T18:57:48.964Z,18.14
2022-10-17T19:00:18.071Z,18.14
2022-10-17T19:02:44.699Z,18.13
2022-10-17T19:05:11.041Z,18.13
2022-10-17T19:07:37.415Z,18.07
2022-10-17T19:10:03.995Z,18.02
2022-10-17T19:12:30.304Z,17.97
2022-10-17T19:14:57.256Z,17.89
2022-10-17T19:17:23.540Z,17.80
2022-10-17T19:19:52.004Z,17.79
2022-10-17T19:22:18.440Z,17.78
2022-10-17T19:24:44.741Z,17.75
2022-10-17T19:27:12.131Z,17.73
2022-10-17T19:29:43.266Z,17.72
2022-10-17T19:32:15.622Z,17.67
2022-10-17T19:34:44.406Z,17.70
2022-10-17T19:37:10.739Z,17.58
2022-10-17T19:39:37.201Z,17.58
2022-10-17T19:42:06.714Z,17.56
2022-10-17T19:44:33.905Z,17.57
2022-10-17T19:47:00.205Z,17.58
2022-10-17T19:49:26.601Z,17.63
2022-10-17T19:51:52.903Z,17.66
2022-10-17T19:54:20.232Z,17.64
2022-10-17T19:56:47.086Z,17.62
2022-10-17T19:59:15.523Z,17.60
2022-10-17T20:01:42.626Z,17.46
2022-10-17T20:04:10.788Z,17.44
2022-10-17T20:06:37.764Z,17.41
2022-10-17T20:09:05.316Z,17.39
2022-10-17T20:11:31.979Z,17.39
2022-10-17T20:13:59.977Z,17.34
2022-10-17T20:16:29.026Z,17.31
2022-10-17T20:18:58.086Z,17.34
2022-10-17T20:21:27.708Z,17.36
2022-10-17T20:23:54.949Z,17.33
2022-10-17T20:26:37.461Z,17.36
2022-10-17T20:29:08.697Z,17.36
2022-10-17T20:31:35.334Z,17.36
2022-10-17T20:34:01.769Z,17.37
2022-10-17T20:36:28.048Z,17.38
2022-10-17T20:38:58.351Z,17.32
2022-10-17T20:41:25.768Z,17.33
2022-10-17T20:43:53.976Z,17.42
2022-10-17T20:46:35.440Z,17.37
2022-10-17T20:49:02.973Z,17.30
2022-10-17T20:51:29.331Z,17.30
2022-10-17T20:56:25.712Z,17.31
2022-10-17T20:59:00.506Z,17.27
2022-10-17T21:01:28.201Z,17.27
2022-10-17T21:03:55.081Z,17.27
2022-10-17T21:06:22.293Z,17.30
2022-10-17T21:08:49.742Z,17.22
2022-10-17T21:11:19.026Z,17.20
2022-10-17T21:13:46.749Z,17.17
2022-10-17T21:16:15.934Z,17.15
2022-10-17T21:18:42.871Z,17.17
2022-10-17T21:21:20.132Z,17.23
2022-10-17T21:23:48.256Z,17.21
2022-10-17T21:26:15.959Z,17.27
2022-10-17T21:28:44.287Z,17.16
2022-10-17T21:31:12.521Z,17.04
2022-10-17T21:33:39.834Z,17.06
2022-10-17T21:36:06.459Z,16.91
2022-10-17T21:38:35.868Z,16.88
2022-10-17T21:41:02.280Z,16.84
2022-10-17T21:43:28.555Z,16.88
2022-10-17T21:45:54.829Z,16.95
2022-10-17T21:48:21.175Z,16.92
2022-10-17T21:50:47.456Z,16.89
2022-10-17T21:53:13.754Z,16.86
2022-10-17T21:55:40.105Z,16.90
2022-10-17T21:58:06.387Z,16.96
2022-10-17T22:00:32.737Z,16.90
2022-10-17T22:02:59.825Z,16.85
2022-10-17T22:05:26.126Z,16.85
2022-10-17T22:07:52.412Z,16.83
2022-10-17T22:10:18.705Z,16.85
2022-10-17T22:12:45.021Z,16.88
2022-10-17T22:15:11.463Z,16.87
2022-10-17T22:17:37.819Z,16.86
2022-10-17T22:20:04.386Z,16.89
2022-10-17T22:22:30.708Z,16.88
2022-10-17T22:24:57.008Z,16.86
2022-10-17T22:27:23.344Z,16.87
2022-10-17T22:29:49.672Z,16.76
2022-10-17T22:32:20.042Z,16.81
2022-10-17T22:34:48.905Z,16.83
2022-10-17T22:37:15.348Z,16.97
2022-10-17T22:39:41.712Z,16.83
2022-10-17T22:42:08.006Z,16.77
2022-10-17T22:44:34.324Z,16.73
2022-10-17T22:47:00.642Z,16.74
2022-10-17T22:49:26.927Z,16.71
2022-10-17T22:51:53.235Z,16.72
2022-10-17T22:54:19.602Z,16.65
2022-10-17T22:56:45.915Z,16.67
2022-10-17T22:59:12.334Z,16.63
2022-10-17T23:01:38.701Z,16.59
2022-10-17T23:04:05.143Z,16.57
2022-10-17T23:06:31.472Z,16.59
2022-10-17T23:08:57.821Z,16.58
2022-10-17T23:11:24.136Z,16.56
2022-10-17T23:13:50.474Z,16.56
2022-10-17T23:16:17.094Z,16.55
2022-10-17T23:18:44.076Z,16.56
2022-10-17T23:21:10.645Z,16.56
2022-10-17T23:23:37.164Z,16.54
2022-10-17T23:26:12.016Z,16.54
2022-10-17T23:28:38.942Z,16.57
2022-10-17T23:31:19.780Z,16.60
2022-10-17T23:33:48.422Z,16.59
2022-10-17T23:36:17.143Z,16.58
2022-10-17T23:38:45.089Z,16.57
2022-10-17T23:41:12.034Z,16.58
2022-10-17T23:43:38.428Z,16.59
2022-10-17T23:46:06.305Z,16.59
2022-10-17T23:48:32.888Z,16.59
2022-10-17T23:50:59.226Z,16.60
2022-10-17T23:53:25.893Z,16.58
2022-10-17T23:55:52.476Z,16.56
2022-10-17T23:58:18.784Z,16.53
